Time;durP1;ratioP1;P1;durP2;ratioP2;P2;SDS_P1;SDS_P2;PMS_P1;PMS_P2;Temp;Humidity;BMP_temperature;BMP_pressure;BME280_temperature;BME280_humidity;BME280_pressure;Samples;Min_cycle;Max_cycle;Signal;HPM_P1;HPM_P2
2022/01/23 00:01:20;;;;;;;5.32;4.80;;;;;;;;;;10597866;27;20051;-76
2022/01/23 00:06:21;;;;;;;8.65;7.25;;;;;;;;;;10597813;27;20019;-76
2022/01/23 00:11:25;;;;;;;9.53;6.70;;;;;;;;;;10616747;27;20027;-74
2022/01/23 00:21:47;;;;;;;9.43;7.40;;;;;;;;;;10615912;27;20035;-79
2022/01/23 00:32:08;;;;;;;9.40;5.75;;;;;;;;;;10587220;27;20019;-73
2022/01/23 00:37:08;;;;;;;9.23;6.43;;;;;;;;;;10561797;28;20027;-73
2022/01/23 00:42:09;;;;;;;10.63;8.65;;;;;;;;;;10556450;28;20028;-76
2022/01/23 00:47:12;;;;;;;7.70;7.10;;;;;;;;;;10570447;28;20474;-72
2022/01/23 00:52:17;;;;;;;12.57;11.48;;;;;;;;;;10554980;28;20024;-77
2022/01/23 00:57:25;;;;;;;7.65;7.05;;;;;;;;;;10572400;28;20032;-72
2022/01/23 01:02:25;;;;;;;8.17;5.67;;;;;;;;;;10553446;28;20108;-72
2022/01/23 01:07:25;;;;;;;8.88;7.93;;;;;;;;;;10553508;28;20353;-71
2022/01/23 01:12:35;;;;;;;6.97;5.47;;;;;;;;;;10553178;28;20027;-72
2022/01/23 01:30:09;;;;;;;6.25;5.68;;;;;;;;;;10553619;28;20100;-71
2022/01/23 01:33:54;;;;;;;7.15;6.65;;;;;;;;;;10561037;27;20065;-76
2022/01/23 01:38:54;;;;;;;11.48;8.75;;;;;;;;;;10572943;27;20022;-75
2022/01/23 01:43:57;;;;;;;13.77;8.90;;;;;;;;;;10600753;27;20019;-72
2022/01/23 01:48:58;;;;;;;12.30;11.00;;;;;;;;;;10580852;27;20477;-73
2022/01/23 01:54:06;;;;;;;7.82;6.85;;;;;;;;;;10599654;27;20019;-72
2022/01/23 02:09:41;;;;;;;18.77;11.13;;;;;;;;;;10620797;27;20047;-72
2022/01/23 02:25:42;;;;;;;11.90;9.90;;;;;;;;;;10614977;27;20020;-72
2022/01/23 02:56:56;;;;;;;10.60;8.47;;;;;;;;;;10570332;28;20469;-73
2022/01/23 03:02:45;;;;;;;13.63;12.32;;;;;;;;;;10557937;28;20294;-72
2022/01/23 03:34:02;;;;;;;15.48;14.05;;;;;;;;;;10567183;28;20093;-71
2022/01/23 03:39:06;;;;;;;10.57;9.60;;;;;;;;;;10549273;28;20124;-72
2022/01/23 03:44:08;;;;;;;16.98;10.45;;;;;;;;;;10548538;28;20051;-72
2022/01/23 03:54:28;;;;;;;11.00;9.98;;;;;;;;;;10567607;28;20094;-78
2022/01/23 03:59:29;;;;;;;14.25;12.98;;;;;;;;;;10548031;28;20432;-72
2022/01/23 04:04:39;;;;;;;10.20;8.57;;;;;;;;;;10547946;28;20023;-76
2022/01/23 04:09:41;;;;;;;8.63;7.53;;;;;;;;;;10548274;28;20023;-72
2022/01/23 04:14:49;;;;;;;9.45;7.68;;;;;;;;;;10551251;28;20505;-77
2022/01/23 04:20:19;;;;;;;;;;;;;;;;;;10573061;28;20015;-73
2022/01/23 05:07:28;;;;;;;13.90;7.13;;;;;;;;;;10572573;28;20026;-73
2022/01/23 05:12:32;;;;;;;10.45;6.78;;;;;;;;;;10571763;28;20485;-71
2022/01/23 05:17:33;;;;;;;8.60;6.47;;;;;;;;;;10553263;28;20497;-73
2022/01/23 05:22:39;;;;;;;9.10;5.55;;;;;;;;;;10553693;28;20016;-72
2022/01/23 05:27:40;;;;;;;20.45;4.75;;;;;;;;;;10569830;28;20016;-78
2022/01/23 05:32:41;;;;;;;11.27;6.93;;;;;;;;;;10553003;27;20474;-76
2022/01/23 05:37:42;;;;;;;5.63;5.03;;;;;;;;;;10569581;28;20556;-74
2022/01/23 05:42:42;;;;;;;11.93;6.50;;;;;;;;;;10564218;27;20027;-72
2022/01/23 05:47:43;;;;;;;24.92;6.95;;;;;;;;;;10611754;27;20261;-71
2022/01/23 05:52:43;;;;;;;7.00;6.23;;;;;;;;;;10552062;28;20023;-72
2022/01/23 05:57:43;;;;;;;14.57;6.93;;;;;;;;;;10578248;27;20047;-79
2022/01/23 06:02:44;;;;;;;11.30;6.43;;;;;;;;;;10593050;27;20087;-81
2022/01/23 06:07:45;;;;;;;20.90;5.40;;;;;;;;;;10552622;28;20020;-77
2022/01/23 06:12:46;;;;;;;8.18;4.47;;;;;;;;;;10552411;28;20031;-79
2022/01/23 06:17:46;;;;;;;5.97;5.00;;;;;;;;;;10550669;28;20485;-76
2022/01/23 06:22:47;;;;;;;8.07;5.05;;;;;;;;;;10551141;28;20107;-75
2022/01/23 06:27:47;;;;;;;6.78;4.53;;;;;;;;;;10569805;28;20120;-77
2022/01/23 06:32:47;;;;;;;8.30;6.57;;;;;;;;;;10550571;28;20059;-75
2022/01/23 06:37:48;;;;;;;11.40;10.32;;;;;;;;;;10586054;27;20018;-76
2022/01/23 06:42:48;;;;;;;10.70;6.45;;;;;;;;;;10551275;28;20462;-75
2022/01/23 06:47:48;;;;;;;8.25;6.75;;;;;;;;;;10551391;28;20413;-73
2022/01/23 06:52:49;;;;;;;9.88;4.97;;;;;;;;;;10552448;28;20022;-74
2022/01/23 06:57:49;;;;;;;10.57;6.65;;;;;;;;;;10549622;28;20500;-74
2022/01/23 07:02:49;;;;;;;8.73;6.32;;;;;;;;;;10586782;27;20469;-73
2022/01/23 07:07:49;;;;;;;7.63;6.68;;;;;;;;;;10592201;27;20562;-74
2022/01/23 07:12:50;;;;;;;9.98;6.60;;;;;;;;;;10584469;27;20031;-77
2022/01/23 07:17:50;;;;;;;6.50;5.73;;;;;;;;;;10607883;27;20092;-79
2022/01/23 07:22:50;;;;;;;11.63;5.95;;;;;;;;;;10589720;28;20707;-75
2022/01/23 07:27:54;;;;;;;10.82;7.97;;;;;;;;;;10592391;28;20083;-81
2022/01/23 07:32:55;;;;;;;9.15;7.60;;;;;;;;;;10621116;27;20084;-80
2022/01/23 07:37:55;;;;;;;30.40;8.20;;;;;;;;;;10584328;28;20027;-82
2022/01/23 07:42:55;;;;;;;12.75;8.32;;;;;;;;;;10573534;28;20030;-77
2022/01/23 07:47:56;;;;;;;12.40;7.57;;;;;;;;;;10588009;27;20435;-78
2022/01/23 07:52:56;;;;;;;8.07;6.20;;;;;;;;;;10590453;27;20201;-75
2022/01/23 07:58:02;;;;;;;16.15;7.63;;;;;;;;;;10555847;28;20389;-77
2022/01/23 08:03:02;;;;;;;17.67;8.43;;;;;;;;;;10598780;27;20393;-74
2022/01/23 08:08:03;;;;;;;8.23;6.82;;;;;;;;;;10596879;27;20022;-77
2022/01/23 08:13:03;;;;;;;16.90;12.07;;;;;;;;;;10617826;27;20072;-77
2022/01/23 08:18:05;;;;;;;12.57;8.75;;;;;;;;;;10597521;27;20526;-75
2022/01/23 08:23:05;;;;;;;14.98;8.88;;;;;;;;;;10595886;27;20023;-77
2022/01/23 08:28:07;;;;;;;13.03;9.30;;;;;;;;;;10596836;27;20012;-75
2022/01/23 08:33:07;;;;;;;11.15;10.00;;;;;;;;;;10596054;27;20110;-75
2022/01/23 08:38:09;;;;;;;24.20;10.30;;;;;;;;;;10591923;27;20353;-76
2022/01/23 08:43:09;;;;;;;8.68;6.65;;;;;;;;;;10589084;27;20019;-77
2022/01/23 08:48:10;;;;;;;10.50;7.72;;;;;;;;;;10576840;27;20026;-73
2022/01/23 08:53:10;;;;;;;10.43;8.10;;;;;;;;;;10595182;27;20061;-71
2022/01/23 08:58:11;;;;;;;19.33;8.20;;;;;;;;;;10564726;27;20197;-72
2022/01/23 09:03:12;;;;;;;24.00;10.57;;;;;;;;;;10556265;27;20034;-72
2022/01/23 09:08:12;;;;;;;6.82;6.18;;;;;;;;;;10598176;27;20023;-76
2022/01/23 09:13:30;;;;;;;10.23;6.78;;;;;;;;;;10601660;27;20130;-80
2022/01/23 09:18:31;;;;;;;17.10;7.18;;;;;;;;;;10598526;27;20560;-77
2022/01/23 09:23:32;;;;;;;12.77;6.10;;;;;;;;;;10600279;27;20023;-73
2022/01/23 09:28:33;;;;;;;27.67;8.07;;;;;;;;;;10593195;27;20023;-73
2022/01/23 09:33:33;;;;;;;20.70;8.10;;;;;;;;;;10573845;27;20023;-73
2022/01/23 09:38:34;;;;;;;16.98;8.82;;;;;;;;;;10580040;27;20023;-80
2022/01/23 09:43:35;;;;;;;12.95;6.93;;;;;;;;;;10589345;27;20038;-73
2022/01/23 09:48:35;;;;;;;12.65;10.98;;;;;;;;;;10549310;28;20054;-78
2022/01/23 09:53:38;;;;;;;17.25;7.18;;;;;;;;;;10555460;27;20118;-73
2022/01/23 09:58:39;;;;;;;11.95;6.68;;;;;;;;;;10549033;28;20097;-74
2022/01/23 10:03:39;;;;;;;14.52;9.30;;;;;;;;;;10558413;27;20378;-77
2022/01/23 10:08:39;;;;;;;20.13;6.38;;;;;;;;;;10594275;27;20019;-81
2022/01/23 10:13:43;;;;;;;12.38;7.05;;;;;;;;;;10593282;27;20022;-81
2022/01/23 10:18:44;;;;;;;20.55;10.85;;;;;;;;;;10575701;27;20370;-84
2022/01/23 10:23:44;;;;;;;15.50;9.68;;;;;;;;;;10592798;27;20027;-76
2022/01/23 10:28:47;;;;;;;11.90;7.25;;;;;;;;;;10574776;27;20047;-76
2022/01/23 10:33:50;;;;;;;14.02;8.13;;;;;;;;;;10568367;28;20022;-73
2022/01/23 10:38:52;;;;;;;12.68;7.45;;;;;;;;;;10579834;27;20023;-72
2022/01/23 10:49:48;;;;;;;12.95;7.70;;;;;;;;;;10567479;28;20016;-73
2022/01/23 10:54:48;;;;;;;13.88;6.40;;;;;;;;;;10548025;27;20030;-72
2022/01/23 10:59:50;;;;;;;9.73;7.38;;;;;;;;;;10566423;28;20048;-75
2022/01/23 11:04:55;;;;;;;16.67;7.95;;;;;;;;;;10566516;27;20035;-75
2022/01/23 11:09:56;;;;;;;5.70;5.20;;;;;;;;;;10590396;27;20023;-70
2022/01/23 11:20:34;;;;;;;11.23;6.15;;;;;;;;;;10592667;27;20015;-72
2022/01/23 11:25:34;;;;;;;7.95;5.15;;;;;;;;;;10568355;28;20065;-73
2022/01/23 11:30:36;;;;;;;17.77;7.95;;;;;;;;;;10559188;28;20015;-70
2022/01/23 11:35:36;;;;;;;11.35;7.93;;;;;;;;;;10547106;28;20024;-73
2022/01/23 11:56:42;;;;;;;9.93;7.82;;;;;;;;;;10602359;28;20099;-72
2022/01/23 12:01:44;;;;;;;9.57;7.53;;;;;;;;;;10546845;28;20043;-72
2022/01/23 12:07:05;;;;;;;12.45;6.65;;;;;;;;;;10580388;28;20581;-76
2022/01/23 12:12:38;;;;;;;10.65;5.55;;;;;;;;;;10565658;28;20045;-73
2022/01/23 12:17:39;;;;;;;8.88;5.60;;;;;;;;;;10546443;28;20024;-72
2022/01/23 12:22:45;;;;;;;26.05;8.07;;;;;;;;;;10546758;28;20453;-73
2022/01/23 12:27:46;;;;;;;7.97;6.68;;;;;;;;;;10546607;28;20019;-78
2022/01/23 12:32:46;;;;;;;11.20;5.60;;;;;;;;;;10563786;28;20023;-76
2022/01/23 12:37:59;;;;;;;13.57;5.63;;;;;;;;;;10566864;28;20046;-72
2022/01/23 12:43:06;;;;;;;8.88;6.60;;;;;;;;;;10553424;28;20147;-75
2022/01/23 12:48:25;;;;;;;8.32;5.85;;;;;;;;;;10572016;28;20088;-71
2022/01/23 12:53:38;;;;;;;12.75;5.70;;;;;;;;;;10571762;28;20031;-77
2022/01/23 12:58:39;;;;;;;9.25;8.38;;;;;;;;;;10535795;28;20056;-77
2022/01/23 13:03:42;;;;;;;11.63;8.20;;;;;;;;;;10581817;27;20497;-72
2022/01/23 13:08:50;;;;;;;13.18;9.40;;;;;;;;;;10592125;27;20416;-77
2022/01/23 13:14:00;;;;;;;19.52;7.65;;;;;;;;;;10590334;27;20033;-72
2022/01/23 13:35:06;;;;;;;9.45;8.25;;;;;;;;;;10570122;27;20107;-75
2022/01/23 13:40:13;;;;;;;15.35;10.85;;;;;;;;;;10585570;27;20027;-73
2022/01/23 14:01:46;;;;;;;8.43;7.63;;;;;;;;;;10585056;27;20058;-77
2022/01/23 14:06:46;;;;;;;10.95;9.85;;;;;;;;;;10591723;27;20046;-76
2022/01/23 14:11:47;;;;;;;12.32;11.25;;;;;;;;;;10588588;27;20039;-73
2022/01/23 14:16:49;;;;;;;9.38;7.15;;;;;;;;;;10608937;27;20733;-74
2022/01/23 14:21:51;;;;;;;7.88;6.63;;;;;;;;;;10593541;27;20023;-81
2022/01/23 14:26:59;;;;;;;14.13;7.40;;;;;;;;;;10584154;27;20103;-82
2022/01/23 15:12:31;;;;;;;16.98;15.27;;;;;;;;;;10481491;22;20059;-74
2022/01/23 15:17:31;;;;;;;21.63;15.00;;;;;;;;;;10526763;28;20040;-75
2022/01/23 15:22:31;;;;;;;11.80;10.40;;;;;;;;;;10506852;28;20040;-73
2022/01/23 15:27:32;;;;;;;17.37;14.73;;;;;;;;;;10506589;28;20028;-70
2022/01/23 15:32:33;;;;;;;19.73;17.75;;;;;;;;;;10506123;28;20032;-71
2022/01/23 15:37:33;;;;;;;15.43;14.13;;;;;;;;;;10506774;28;20081;-71
2022/01/23 15:42:33;;;;;;;13.77;12.43;;;;;;;;;;10505337;28;20028;-71
2022/01/23 15:47:34;;;;;;;15.18;13.02;;;;;;;;;;10506349;28;20025;-71
2022/01/23 15:52:34;;;;;;;13.50;12.18;;;;;;;;;;10506363;28;20031;-75
2022/01/23 15:57:34;;;;;;;16.97;15.17;;;;;;;;;;10505995;28;20029;-75
2022/01/23 16:02:35;;;;;;;15.32;13.75;;;;;;;;;;10507040;28;20121;-71
2022/01/23 16:07:35;;;;;;;22.35;20.58;;;;;;;;;;10500051;28;20569;-73
2022/01/23 16:12:38;;;;;;;25.40;23.07;;;;;;;;;;10471572;28;20071;-71
2022/01/23 16:17:38;;;;;;;18.45;16.83;;;;;;;;;;10471664;28;20263;-68
2022/01/23 16:22:39;;;;;;;17.88;16.25;;;;;;;;;;10488813;28;20493;-70
2022/01/23 16:27:40;;;;;;;31.00;22.83;;;;;;;;;;10488082;28;20501;-69
2022/01/23 16:32:40;;;;;;;24.05;22.50;;;;;;;;;;10470335;28;20035;-68
2022/01/23 16:37:40;;;;;;;25.80;24.00;;;;;;;;;;10452779;28;20139;-72
2022/01/23 16:42:41;;;;;;;24.20;22.30;;;;;;;;;;10468408;28;20290;-70
2022/01/23 16:47:41;;;;;;;19.50;18.00;;;;;;;;;;10469240;28;20028;-75
2022/01/23 16:52:42;;;;;;;22.27;20.02;;;;;;;;;;10487147;28;20036;-74
2022/01/23 16:57:42;;;;;;;35.55;33.35;;;;;;;;;;10470603;28;20024;-69
2022/01/23 17:02:43;;;;;;;41.47;38.30;;;;;;;;;;10487144;28;20079;-74
2022/01/23 17:07:43;;;;;;;26.08;24.05;;;;;;;;;;10528040;28;20160;-72
2022/01/23 17:12:43;;;;;;;20.23;18.73;;;;;;;;;;10484995;28;20592;-71
2022/01/23 17:17:46;;;;;;;24.95;22.75;;;;;;;;;;10468351;28;20146;-69
2022/01/23 17:22:46;;;;;;;23.70;22.08;;;;;;;;;;10481153;28;20032;-70
2022/01/23 17:27:48;;;;;;;25.30;23.20;;;;;;;;;;10470061;28;20028;-71
2022/01/23 17:32:48;;;;;;;22.80;20.80;;;;;;;;;;10486216;28;20354;-73
2022/01/23 17:37:50;;;;;;;32.95;30.65;;;;;;;;;;10485315;28;20028;-70
2022/01/23 17:42:50;;;;;;;25.38;23.40;;;;;;;;;;10469403;28;20051;-75
2022/01/23 17:52:52;;;;;;;31.92;29.42;;;;;;;;;;10491805;28;20787;-74
2022/01/23 17:57:52;;;;;;;29.77;27.58;;;;;;;;;;10527431;28;20595;-76
2022/01/23 18:02:53;;;;;;;21.90;19.58;;;;;;;;;;10509156;28;20032;-69
2022/01/23 18:07:53;;;;;;;18.95;17.08;;;;;;;;;;10526380;28;20078;-71
2022/01/23 18:12:54;;;;;;;27.17;25.23;;;;;;;;;;10486372;28;20044;-70
2022/01/23 18:17:54;;;;;;;26.88;24.88;;;;;;;;;;10466707;28;20035;-71
2022/01/23 18:22:55;;;;;;;31.38;28.60;;;;;;;;;;10483864;28;20098;-74
2022/01/23 18:27:59;;;;;;;24.65;16.17;;;;;;;;;;10483039;28;20116;-69
2022/01/23 18:33:00;;;;;;;31.55;28.95;;;;;;;;;;10482430;28;20033;-70
2022/01/23 18:38:00;;;;;;;22.00;20.20;;;;;;;;;;10483229;28;20032;-72
2022/01/23 18:43:00;;;;;;;25.67;16.10;;;;;;;;;;10467885;28;20032;-73
2022/01/23 18:48:01;;;;;;;18.38;16.52;;;;;;;;;;10444689;28;20043;-70
2022/01/23 18:53:06;;;;;;;25.93;23.93;;;;;;;;;;10423634;28;20036;-76
2022/01/23 18:58:13;;;;;;;31.13;28.45;;;;;;;;;;10444902;28;20032;-70
2022/01/23 19:08:25;;;;;;;29.60;27.00;;;;;;;;;;10512710;28;20379;-70
2022/01/23 19:13:26;;;;;;;28.58;25.80;;;;;;;;;;10464519;28;20283;-70
2022/01/23 19:18:26;;;;;;;30.45;27.63;;;;;;;;;;10482139;28;20040;-71
2022/01/23 19:23:27;;;;;;;37.25;34.40;;;;;;;;;;10482015;28;20782;-72
2022/01/23 19:28:29;;;;;;;31.80;29.30;;;;;;;;;;10481037;28;20511;-72
2022/01/23 19:33:29;;;;;;;29.25;24.83;;;;;;;;;;10482315;28;20706;-73
2022/01/23 19:38:30;;;;;;;27.30;18.98;;;;;;;;;;10481465;28;20028;-69
2022/01/23 19:53:31;;;;;;;38.47;35.03;;;;;;;;;;10532643;28;20039;-71
2022/01/23 19:58:34;;;;;;;38.45;35.75;;;;;;;;;;10452996;28;20048;-71
2022/01/23 20:03:36;;;;;;;28.00;25.27;;;;;;;;;;10480407;28;20345;-71
2022/01/23 20:08:37;;;;;;;30.85;28.42;;;;;;;;;;10530547;28;20795;-70
2022/01/23 20:13:37;;;;;;;45.33;42.22;;;;;;;;;;10530425;28;20048;-75
2022/01/23 20:18:41;;;;;;;40.30;37.83;;;;;;;;;;10530909;28;20527;-72
2022/01/23 20:23:41;;;;;;;44.10;40.55;;;;;;;;;;10505753;28;20040;-69
2022/01/23 20:28:42;;;;;;;45.53;41.92;;;;;;;;;;10486643;28;20028;-69
2022/01/23 20:33:44;;;;;;;37.17;34.15;;;;;;;;;;10471560;28;20560;-69
2022/01/23 20:38:49;;;;;;;38.85;35.33;;;;;;;;;;10472348;28;20044;-71
2022/01/23 20:43:51;;;;;;;29.73;27.10;;;;;;;;;;10488986;28;20551;-70
2022/01/23 20:48:51;;;;;;;30.25;27.38;;;;;;;;;;10492884;28;20535;-76
2022/01/23 20:53:53;;;;;;;35.17;32.00;;;;;;;;;;10491159;28;20106;-75
2022/01/23 20:58:53;;;;;;;34.03;30.85;;;;;;;;;;10493544;28;20039;-72
2022/01/23 21:03:54;;;;;;;35.25;32.08;;;;;;;;;;10498405;28;20036;-70
2022/01/23 21:08:55;;;;;;;40.58;37.42;;;;;;;;;;10456716;28;20128;-72
2022/01/23 21:14:06;;;;;;;38.17;34.67;;;;;;;;;;10446100;28;20991;-71
2022/01/23 21:40:12;;;;;;;33.65;30.58;;;;;;;;;;10473310;28;20056;-71
2022/01/23 21:45:12;;;;;;;29.98;27.45;;;;;;;;;;10470190;28;20119;-70
2022/01/23 21:50:13;;;;;;;38.27;35.07;;;;;;;;;;10453017;28;20068;-71
2022/01/23 21:55:13;;;;;;;35.15;31.90;;;;;;;;;;10469934;28;20255;-77
2022/01/23 22:00:13;;;;;;;30.23;27.40;;;;;;;;;;10469738;28;20395;-72
2022/01/23 22:05:14;;;;;;;26.42;23.90;;;;;;;;;;10469294;28;20039;-70
2022/01/23 22:10:30;;;;;;;22.85;20.52;;;;;;;;;;10468841;28;20128;-76
2022/01/23 22:20:51;;;;;;;24.50;22.25;;;;;;;;;;10486147;28;20037;-71
2022/01/23 22:31:11;;;;;;;24.75;22.38;;;;;;;;;;10486658;28;20029;-71
2022/01/23 22:36:11;;;;;;;20.75;18.77;;;;;;;;;;10468329;28;20388;-75
2022/01/23 22:41:12;;;;;;;50.90;47.45;;;;;;;;;;10485400;28;20867;-70
2022/01/23 22:46:28;;;;;;;26.83;20.88;;;;;;;;;;10485313;28;20033;-76
2022/01/23 22:51:29;;;;;;;24.77;19.95;;;;;;;;;;10467339;28;20032;-74
2022/01/23 22:56:30;;;;;;;25.00;20.48;;;;;;;;;;10467486;28;20462;-69
2022/01/23 23:01:30;;;;;;;23.25;20.95;;;;;;;;;;10467006;28;20033;-69
2022/01/23 23:06:31;;;;;;;28.38;25.83;;;;;;;;;;10484757;28;20025;-69
2022/01/23 23:11:31;;;;;;;21.77;18.05;;;;;;;;;;10466915;28;20056;-73
2022/01/23 23:16:37;;;;;;;20.23;16.80;;;;;;;;;;10483536;28;20040;-72
2022/01/23 23:21:40;;;;;;;18.92;16.90;;;;;;;;;;10482975;28;20456;-68
2022/01/23 23:26:41;;;;;;;27.83;16.15;;;;;;;;;;10466223;28;20485;-69
2022/01/23 23:31:42;;;;;;;28.92;26.20;;;;;;;;;;10484837;28;20470;-71
2022/01/23 23:36:42;;;;;;;20.25;18.25;;;;;;;;;;10466757;28;20037;-71
2022/01/23 23:41:47;;;;;;;31.27;19.27;;;;;;;;;;10482972;28;20063;-70
2022/01/23 23:46:47;;;;;;;20.17;17.98;;;;;;;;;;10485356;28;20267;-68
2022/01/23 23:51:48;;;;;;;22.93;21.07;;;;;;;;;;10482598;28;20035;-69
2022/01/23 23:56:52;;;;;;;27.02;24.38;;;;;;;;;;10482922;28;20378;-72
